createdAt,value
2022-11-04T00:00:03.594Z,966.54
2022-11-04T00:01:03.520Z,966.59
2022-11-04T00:02:03.612Z,966.59
2022-11-04T00:03:03.384Z,966.74
2022-11-04T00:04:03.434Z,966.57
2022-11-04T00:05:03.570Z,966.59
2022-11-04T00:06:03.582Z,966.68
2022-11-04T00:07:03.642Z,966.57
2022-11-04T00:08:03.664Z,966.62
2022-11-04T00:09:03.621Z,966.59
2022-11-04T00:10:03.846Z,966.51
2022-11-04T00:11:03.733Z,966.57
2022-11-04T00:12:03.760Z,966.45
2022-11-04T00:13:03.763Z,966.51
2022-11-04T00:14:03.838Z,966.59
2022-11-04T00:15:02.951Z,966.59
2022-11-04T00:16:03.077Z,966.45
2022-11-04T00:17:03.039Z,966.48
2022-11-04T00:18:03.034Z,966.54
2022-11-04T00:19:03.155Z,966.42
2022-11-04T00:20:03.286Z,966.57
2022-11-04T00:21:03.218Z,966.48
2022-11-04T00:22:03.306Z,966.62
2022-11-04T00:23:03.259Z,966.45
2022-11-04T00:24:03.357Z,966.54
2022-11-04T00:25:03.385Z,966.54
2022-11-04T00:26:03.445Z,966.48
2022-11-04T00:27:03.535Z,966.43
2022-11-04T00:28:03.541Z,966.42
2022-11-04T00:29:03.466Z,966.54
2022-11-04T00:30:03.637Z,966.54
2022-11-04T00:31:03.670Z,966.45
2022-11-04T00:32:03.674Z,966.54
2022-11-04T00:33:03.601Z,966.62
2022-11-04T00:34:03.966Z,966.46
2022-11-04T00:35:03.786Z,966.68
2022-11-04T00:36:03.798Z,966.46
2022-11-04T00:37:03.764Z,966.63
2022-11-04T00:38:03.787Z,966.60
2022-11-04T00:39:03.849Z,966.46
2022-11-04T00:40:03.077Z,966.43
2022-11-04T00:41:03.022Z,966.46
2022-11-04T00:42:03.018Z,966.31
2022-11-04T00:43:03.025Z,966.31
2022-11-04T00:44:03.073Z,966.34
2022-11-04T00:45:03.185Z,966.14
2022-11-04T00:46:03.218Z,966.23
2022-11-04T00:47:03.189Z,966.31
2022-11-04T00:48:03.357Z,966.23
2022-11-04T00:49:03.175Z,966.37
2022-11-04T00:50:03.306Z,966.23
2022-11-04T00:51:03.480Z,966.25
2022-11-04T00:52:03.340Z,966.20
2022-11-04T00:53:03.460Z,966.17
2022-11-04T00:54:03.587Z,966.14
2022-11-04T00:55:03.547Z,966.19
2022-11-04T00:56:03.508Z,966.33
2022-11-04T00:57:03.594Z,966.18
2022-11-04T00:58:03.672Z,966.07
2022-11-04T00:59:03.761Z,966.23
2022-11-04T01:00:03.883Z,966.17
2022-11-04T01:01:04.006Z,966.09
2022-11-04T01:02:03.268Z,966.11
2022-11-04T01:03:03.015Z,966.25
2022-11-04T01:04:02.973Z,966.25
2022-11-04T01:05:03.019Z,966.22
2022-11-04T01:06:03.021Z,966.19
2022-11-04T01:07:03.076Z,966.30
2022-11-04T01:08:03.157Z,966.27
2022-11-04T01:09:03.220Z,966.24
2022-11-04T01:10:03.490Z,966.32
2022-11-04T01:11:03.875Z,966.35
2022-11-04T01:12:03.005Z,966.29
2022-11-04T01:13:02.983Z,966.23
2022-11-04T01:14:03.007Z,966.06
2022-11-04T01:15:03.167Z,966.34
2022-11-04T01:16:03.115Z,966.22
2022-11-04T01:17:03.191Z,966.17
2022-11-04T01:18:03.118Z,966.17
2022-11-04T01:19:03.153Z,966.16
2022-11-04T01:20:03.181Z,966.28
2022-11-04T01:21:03.241Z,966.30
2022-11-04T01:22:03.159Z,966.33
2022-11-04T01:23:03.300Z,966.36
2022-11-04T01:24:03.395Z,966.25
2022-11-04T01:25:03.351Z,966.33
2022-11-04T01:26:03.479Z,966.33
2022-11-04T01:27:03.571Z,966.19
2022-11-04T01:28:03.519Z,966.30
2022-11-04T01:29:03.616Z,966.30
2022-11-04T01:30:03.694Z,966.36
2022-11-04T01:31:03.743Z,966.36
2022-11-04T01:32:03.892Z,966.36
2022-11-04T01:33:03.016Z,966.33
2022-11-04T01:34:02.992Z,966.36
2022-11-04T01:35:02.973Z,966.39
2022-11-04T01:36:03.104Z,966.33
2022-11-04T01:37:03.085Z,966.39
2022-11-04T01:38:02.928Z,966.39
2022-11-04T01:39:02.955Z,966.44
2022-11-04T01:40:03.076Z,966.41
2022-11-04T01:41:03.064Z,966.33
2022-11-04T01:43:03.147Z,966.30
2022-11-04T01:44:03.094Z,966.47
2022-11-04T01:45:03.566Z,966.33
2022-11-04T01:46:03.614Z,966.27
2022-11-04T01:47:03.685Z,966.33
2022-11-04T01:48:03.667Z,966.36
2022-11-04T01:49:03.754Z,966.27
2022-11-04T01:50:03.702Z,966.30
2022-11-04T01:51:03.835Z,966.30
2022-11-04T01:52:03.856Z,966.50
2022-11-04T01:53:03.714Z,966.33
2022-11-04T01:54:03.823Z,966.38
2022-11-04T01:55:02.941Z,966.33
2022-11-04T01:56:02.999Z,966.38
2022-11-04T01:57:03.162Z,966.33
2022-11-04T01:58:03.313Z,966.30
2022-11-04T01:59:03.336Z,966.47
2022-11-04T02:00:03.267Z,966.41
2022-11-04T02:01:03.513Z,966.18
2022-11-04T02:02:03.786Z,966.27
2022-11-04T02:03:03.389Z,966.21
2022-11-04T02:04:03.437Z,966.33
2022-11-04T02:05:03.369Z,966.30
2022-11-04T02:06:03.363Z,966.30
2022-11-04T02:07:03.423Z,966.38
2022-11-04T02:08:03.595Z,966.35
2022-11-04T02:09:03.711Z,966.32
2022-11-04T02:10:03.717Z,966.38
2022-11-04T02:11:03.742Z,966.32
2022-11-04T02:12:03.755Z,966.24
2022-11-04T02:13:03.677Z,966.38
2022-11-04T02:14:03.675Z,966.21
2022-11-04T02:15:03.616Z,966.21
2022-11-04T02:16:03.699Z,966.32
2022-11-04T02:17:03.727Z,966.27
2022-11-04T02:18:03.784Z,966.12
2022-11-04T02:19:03.660Z,966.27
2022-11-04T02:20:03.748Z,966.21
2022-11-04T02:21:03.757Z,966.21
2022-11-04T02:22:03.738Z,966.07
2022-11-04T02:23:03.757Z,966.07
2022-11-04T02:24:03.698Z,966.09
2022-11-04T02:25:03.863Z,966.09
2022-11-04T02:26:03.709Z,966.18
2022-11-04T02:27:03.702Z,966.03
2022-11-04T02:28:03.811Z,966.06
2022-11-04T02:29:03.116Z,966.09
2022-11-04T02:30:03.167Z,966.06
2022-11-04T02:31:03.177Z,965.95
2022-11-04T02:32:03.144Z,966.14
2022-11-04T02:33:03.150Z,966.09
2022-11-04T02:34:03.181Z,966.03
2022-11-04T02:35:03.276Z,965.97
2022-11-04T02:36:03.331Z,965.95
2022-11-04T02:37:03.309Z,966.00
2022-11-04T02:38:03.359Z,965.83
2022-11-04T02:39:03.693Z,965.86
2022-11-04T02:40:03.700Z,965.92
2022-11-04T02:41:03.867Z,965.94
2022-11-04T02:42:03.808Z,965.94
2022-11-04T02:43:03.866Z,965.89
2022-11-04T02:44:03.713Z,965.83
2022-11-04T02:45:03.900Z,966.06
2022-11-04T02:46:03.907Z,966.14
2022-11-04T02:47:03.855Z,966.06
2022-11-04T02:48:02.874Z,966.11
2022-11-04T02:49:02.953Z,966.06
2022-11-04T02:50:03.066Z,965.97
2022-11-04T02:51:03.161Z,966.11
2022-11-04T02:52:03.558Z,966.03
2022-11-04T02:53:03.518Z,966.06
2022-11-04T02:54:03.671Z,966.20
2022-11-04T02:55:03.745Z,966.20
2022-11-04T02:56:03.790Z,966.14
2022-11-04T02:57:02.920Z,966.20
2022-11-04T02:58:03.931Z,966.06
2022-11-04T02:59:03.950Z,966.08
2022-11-04T03:00:03.888Z,966.09
2022-11-04T03:01:03.155Z,966.00
2022-11-04T03:02:03.401Z,966.08
2022-11-04T03:03:02.972Z,966.14
2022-11-04T03:04:03.079Z,966.11
2022-11-04T03:05:03.056Z,966.06
2022-11-04T03:06:03.051Z,966.11
2022-11-04T03:07:03.154Z,966.26
2022-11-04T03:08:03.107Z,966.17
2022-11-04T03:09:03.049Z,966.00
2022-11-04T03:10:03.166Z,966.11
2022-11-04T03:11:03.103Z,966.28
2022-11-04T03:12:03.129Z,966.23
2022-11-04T03:13:03.400Z,966.29
2022-11-04T03:14:03.579Z,966.40
2022-11-04T03:15:04.233Z,966.32
2022-11-04T03:16:03.264Z,966.40
2022-11-04T03:17:03.876Z,966.46
2022-11-04T03:18:03.856Z,966.57
2022-11-04T03:19:02.983Z,966.60
2022-11-04T03:20:03.008Z,966.49
2022-11-04T03:21:03.033Z,966.63
2022-11-04T03:22:03.045Z,966.63
2022-11-04T03:23:03.792Z,966.63
2022-11-04T03:24:03.888Z,966.72
2022-11-04T03:25:02.886Z,966.69
2022-11-04T03:26:02.994Z,966.75
2022-11-04T03:27:03.090Z,966.75
2022-11-04T03:28:03.073Z,966.80
2022-11-04T03:29:03.087Z,966.92
2022-11-04T03:30:03.295Z,966.98
2022-11-04T03:31:03.187Z,966.95
2022-11-04T03:32:03.122Z,966.98
2022-11-04T03:33:03.133Z,967.02
2022-11-04T03:34:03.250Z,967.02
2022-11-04T03:35:03.266Z,966.95
2022-11-04T03:36:03.336Z,967.00
2022-11-04T03:37:03.361Z,967.00
2022-11-04T03:38:03.395Z,967.02
2022-11-04T03:39:03.443Z,967.02
2022-11-04T03:40:03.573Z,966.86
2022-11-04T03:41:03.468Z,966.98
2022-11-04T03:42:03.442Z,966.86
2022-11-04T03:43:03.500Z,966.83
2022-11-04T03:44:03.451Z,966.89
2022-11-04T03:45:03.453Z,966.86
2022-11-04T03:46:03.451Z,966.83
2022-11-04T03:47:03.471Z,966.92
2022-11-04T03:48:03.455Z,967.05
2022-11-04T03:49:03.661Z,966.95
2022-11-04T03:50:03.524Z,966.89
2022-11-04T03:51:03.525Z,966.98
2022-11-04T03:52:03.532Z,967.05
2022-11-04T03:53:03.762Z,966.92
2022-11-04T03:54:03.587Z,966.92
2022-11-04T03:55:03.654Z,966.92
2022-11-04T03:56:03.616Z,966.84
2022-11-04T03:57:03.687Z,966.84
2022-11-04T03:58:03.645Z,966.81
2022-11-04T03:59:03.745Z,966.84
2022-11-04T04:00:03.900Z,966.81
2022-11-04T04:01:04.202Z,966.95
2022-11-04T04:02:03.972Z,966.89
2022-11-04T04:03:03.846Z,966.78
2022-11-04T04:04:03.883Z,966.84
2022-11-04T04:05:02.935Z,966.81
2022-11-04T04:06:03.009Z,966.81
2022-11-04T04:07:03.010Z,966.92
2022-11-04T04:08:03.048Z,966.89
2022-11-04T04:09:03.111Z,966.89
2022-11-04T04:10:03.247Z,966.98
2022-11-04T04:11:03.030Z,967.01
2022-11-04T04:12:03.012Z,967.11
2022-11-04T04:13:03.126Z,967.01
2022-11-04T04:14:03.682Z,967.11
2022-11-04T04:15:03.587Z,967.01
2022-11-04T04:16:03.576Z,967.06
2022-11-04T04:17:03.843Z,967.01
2022-11-04T04:18:03.743Z,967.14
2022-11-04T04:19:03.738Z,967.06
2022-11-04T04:20:03.791Z,967.09
2022-11-04T04:21:03.762Z,967.09
2022-11-04T04:22:03.724Z,967.12
2022-11-04T04:23:03.751Z,967.29
2022-11-04T04:24:03.827Z,967.17
2022-11-04T04:25:06.070Z,967.26
2022-11-04T04:26:03.201Z,967.12
2022-11-04T04:27:03.181Z,967.06
2022-11-04T04:28:03.216Z,967.17
2022-11-04T04:29:03.157Z,967.09
2022-11-04T04:30:03.365Z,967.03
2022-11-04T04:31:03.395Z,967.01
2022-11-04T04:32:03.269Z,967.06
2022-11-04T04:33:03.371Z,967.29
2022-11-04T04:34:03.362Z,967.20
2022-11-04T04:35:03.476Z,967.42
2022-11-04T04:36:03.538Z,967.18
2022-11-04T04:37:03.546Z,967.39
2022-11-04T04:38:03.658Z,967.23
2022-11-04T04:39:03.578Z,967.26
2022-11-04T04:40:03.729Z,967.40
2022-11-04T04:41:03.744Z,967.32
2022-11-04T04:42:03.812Z,967.26
2022-11-04T04:43:03.789Z,967.15
2022-11-04T04:44:02.979Z,967.26
2022-11-04T04:45:02.907Z,967.29
2022-11-04T04:46:02.963Z,967.29
2022-11-04T04:47:02.945Z,967.32
2022-11-04T04:48:03.072Z,967.29
2022-11-04T04:49:03.061Z,967.23
2022-11-04T04:50:03.241Z,967.29
2022-11-04T04:51:03.245Z,967.26
2022-11-04T04:52:03.282Z,967.23
2022-11-04T04:53:03.294Z,967.32
2022-11-04T04:54:03.211Z,967.29
2022-11-04T04:55:03.231Z,967.39
2022-11-04T04:56:03.186Z,967.48
2022-11-04T04:57:03.200Z,967.35
2022-11-04T04:58:03.254Z,967.45
2022-11-04T04:59:03.302Z,967.54
2022-11-04T05:00:03.269Z,967.45
2022-11-04T05:01:03.430Z,967.45
2022-11-04T05:02:03.527Z,967.42
2022-11-04T05:03:03.309Z,967.48
2022-11-04T05:04:03.377Z,967.45
2022-11-04T05:05:03.507Z,967.51
2022-11-04T05:06:03.434Z,967.54
2022-11-04T05:07:03.425Z,967.60
2022-11-04T05:08:03.496Z,967.51
2022-11-04T05:09:03.482Z,967.60
2022-11-04T05:10:03.532Z,967.48
2022-11-04T05:11:03.440Z,967.48
2022-11-04T05:12:03.421Z,967.46
2022-11-04T05:13:03.913Z,967.51
2022-11-04T05:14:03.872Z,967.32
2022-11-04T05:15:03.879Z,967.43
2022-11-04T05:16:03.430Z,967.54
2022-11-04T05:17:03.538Z,967.40
2022-11-04T05:18:03.453Z,967.33
2022-11-04T05:19:03.678Z,967.27
2022-11-04T05:20:03.523Z,967.49
2022-11-04T05:21:03.639Z,967.43
2022-11-04T05:22:03.481Z,967.41
2022-11-04T05:23:03.457Z,967.41
2022-11-04T05:24:03.428Z,967.36
2022-11-04T05:25:03.874Z,967.30
2022-11-04T05:26:03.793Z,967.36
2022-11-04T05:27:03.847Z,967.22
2022-11-04T05:28:03.858Z,967.36
2022-11-04T05:29:03.138Z,967.36
2022-11-04T05:30:03.040Z,967.36
2022-11-04T05:31:02.966Z,967.36
2022-11-04T05:32:02.998Z,967.25
2022-11-04T05:33:05.649Z,967.47
2022-11-04T05:34:03.137Z,967.30
2022-11-04T05:35:03.213Z,967.52
2022-11-04T05:36:03.253Z,967.50
2022-11-04T05:37:03.260Z,967.33
2022-11-04T05:38:03.194Z,967.33
2022-11-04T05:39:03.274Z,967.31
2022-11-04T05:40:03.421Z,967.22
2022-11-04T05:41:03.393Z,967.31
2022-11-04T05:42:03.470Z,967.25
2022-11-04T05:43:03.557Z,967.50
2022-11-04T05:44:03.548Z,967.31
2022-11-04T05:45:03.578Z,967.34
2022-11-04T05:46:03.757Z,967.20
2022-11-04T05:47:03.816Z,967.39
2022-11-04T05:48:03.713Z,967.39
2022-11-04T05:49:03.727Z,967.28
2022-11-04T05:50:03.686Z,967.28
2022-11-04T05:51:03.272Z,967.25
2022-11-04T05:52:03.319Z,967.28
2022-11-04T05:53:03.311Z,967.23
2022-11-04T05:54:03.503Z,967.28
2022-11-04T05:55:03.463Z,967.26
2022-11-04T05:56:03.482Z,967.31
2022-11-04T05:57:03.571Z,967.42
2022-11-04T05:58:03.532Z,967.34
2022-11-04T05:59:03.551Z,967.45
2022-11-04T06:00:03.423Z,967.42
2022-11-04T06:01:03.469Z,967.34
2022-11-04T06:02:03.825Z,967.29
2022-11-04T06:03:03.648Z,967.20
2022-11-04T06:04:03.357Z,967.26
2022-11-04T06:05:03.424Z,967.32
2022-11-04T06:06:03.429Z,967.20
2022-11-04T06:07:03.515Z,967.42
2022-11-04T06:08:03.590Z,967.26
2022-11-04T06:09:03.630Z,967.45
2022-11-04T06:10:03.769Z,967.32
2022-11-04T06:11:03.668Z,967.48
2022-11-04T06:12:03.839Z,967.29
2022-11-04T06:13:03.789Z,967.32
2022-11-04T06:14:02.890Z,967.26
2022-11-04T06:15:03.932Z,967.29
2022-11-04T06:16:03.068Z,967.26
2022-11-04T06:17:03.152Z,967.35
2022-11-04T06:18:02.952Z,967.35
2022-11-04T06:19:09.644Z,967.35
2022-11-04T06:20:03.040Z,967.32
2022-11-04T06:21:03.012Z,967.35
2022-11-04T06:22:02.958Z,967.12
2022-11-04T06:23:03.013Z,967.32
2022-11-04T06:24:02.975Z,967.24
2022-11-04T06:25:03.064Z,967.27
2022-11-04T06:26:03.198Z,967.18
2022-11-04T06:27:03.115Z,967.46
2022-11-04T06:28:03.169Z,967.43
2022-11-04T06:29:03.225Z,967.46
2022-11-04T06:30:03.642Z,967.29
2022-11-04T06:31:03.854Z,967.49
2022-11-04T06:32:03.709Z,967.27
2022-11-04T06:33:03.796Z,967.32
2022-11-04T06:34:03.967Z,967.46
2022-11-04T06:35:02.972Z,967.43
2022-11-04T06:36:02.917Z,967.40
2022-11-04T06:37:02.990Z,967.57
2022-11-04T06:38:02.979Z,967.49
2022-11-04T06:39:05.365Z,967.54
2022-11-04T06:40:02.961Z,967.40
2022-11-04T06:42:03.605Z,967.33
2022-11-04T06:43:03.492Z,967.43
2022-11-04T06:44:03.372Z,967.57
2022-11-04T06:45:03.328Z,967.60
2022-11-04T06:46:03.489Z,967.57
2022-11-04T06:47:03.407Z,967.63
2022-11-04T06:48:03.498Z,967.60
2022-11-04T06:49:03.554Z,967.58
2022-11-04T06:50:03.628Z,967.60
2022-11-04T06:51:03.658Z,967.69
2022-11-04T06:52:03.636Z,967.86
2022-11-04T06:53:03.784Z,967.92
2022-11-04T06:54:03.889Z,967.98
2022-11-04T06:55:03.794Z,967.86
2022-11-04T06:56:03.904Z,968.03
2022-11-04T06:57:03.825Z,967.98
2022-11-04T06:58:02.927Z,967.98
2022-11-04T06:59:02.980Z,967.84
2022-11-04T07:00:03.202Z,967.81
2022-11-04T07:01:14.735Z,967.84
2022-11-04T07:02:03.240Z,967.92
2022-11-04T07:03:03.025Z,967.84
2022-11-04T07:04:02.975Z,967.95
2022-11-04T07:05:03.152Z,968.04
2022-11-04T07:06:03.199Z,968.06
2022-11-04T07:07:03.059Z,968.04
2022-11-04T07:08:03.114Z,968.12
2022-11-04T07:09:03.177Z,968.15
2022-11-04T07:10:03.103Z,968.12
2022-11-04T07:11:03.132Z,968.04
2022-11-04T07:12:03.210Z,968.04
2022-11-04T07:13:03.118Z,967.78
2022-11-04T07:14:03.150Z,967.87
2022-11-04T07:15:03.262Z,967.73
2022-11-04T07:16:03.165Z,967.61
2022-11-04T07:17:03.384Z,967.73
2022-11-04T07:18:03.289Z,967.73
2022-11-04T07:19:03.369Z,967.76
2022-11-04T07:20:03.372Z,967.93
2022-11-04T07:21:10.455Z,967.90
2022-11-04T07:22:03.491Z,967.90
2022-11-04T07:23:03.687Z,967.93
2022-11-04T07:24:03.716Z,967.96
2022-11-04T07:25:03.840Z,967.95
2022-11-04T07:26:03.886Z,968.04
2022-11-04T07:27:03.815Z,967.96
2022-11-04T07:28:03.891Z,968.04
2022-11-04T07:29:02.966Z,968.21
2022-11-04T07:30:02.941Z,968.21
2022-11-04T07:31:02.933Z,968.30
2022-11-04T07:32:03.015Z,968.44
2022-11-04T07:33:03.059Z,968.38
2022-11-04T07:34:03.101Z,968.30
2022-11-04T07:35:03.262Z,968.18
2022-11-04T07:36:03.293Z,968.32
2022-11-04T07:37:03.361Z,968.30
2022-11-04T07:38:03.320Z,968.24
2022-11-04T07:39:03.433Z,968.41
2022-11-04T07:40:03.612Z,968.32
2022-11-04T07:41:03.623Z,968.38
2022-11-04T07:42:03.687Z,968.46
2022-11-04T07:43:03.687Z,968.63
2022-11-04T07:44:03.758Z,968.52
2022-11-04T07:45:03.934Z,968.74
2022-11-04T07:46:03.982Z,968.79
2022-11-04T07:47:03.895Z,968.77
2022-11-04T07:48:03.054Z,968.85
2022-11-04T07:49:03.182Z,968.85
2022-11-04T07:50:11.141Z,968.94
2022-11-04T07:51:03.221Z,969.11
2022-11-04T07:52:03.310Z,969.02
2022-11-04T07:53:03.393Z,968.96
2022-11-04T07:54:03.466Z,968.96
2022-11-04T07:55:03.858Z,968.88
2022-11-04T07:56:03.597Z,968.88
2022-11-04T07:57:03.658Z,968.88
2022-11-04T07:58:03.664Z,968.82
2022-11-04T07:59:03.686Z,968.96
2022-11-04T08:00:03.834Z,968.85
2022-11-04T08:01:02.885Z,968.88
2022-11-04T08:02:03.404Z,968.82
2022-11-04T08:03:03.345Z,968.85
2022-11-04T08:04:03.237Z,968.79
2022-11-04T08:05:03.184Z,968.74
2022-11-04T08:06:03.304Z,968.69
2022-11-04T08:07:03.236Z,968.63
2022-11-04T08:08:03.339Z,968.69
2022-11-04T08:09:03.488Z,968.49
2022-11-04T08:10:03.466Z,968.66
2022-11-04T08:11:03.576Z,968.55
2022-11-04T08:12:03.596Z,968.49
2022-11-04T08:13:03.768Z,968.49
2022-11-04T08:14:03.770Z,968.43
2022-11-04T08:15:03.032Z,968.49
2022-11-04T08:16:02.969Z,968.49
2022-11-04T08:17:03.015Z,968.43
2022-11-04T08:18:03.375Z,968.32
2022-11-04T08:19:03.285Z,968.18
2022-11-04T08:20:03.385Z,968.23
2022-11-04T08:21:03.518Z,968.17
2022-11-04T08:22:03.574Z,968.03
2022-11-04T08:23:03.682Z,967.92
2022-11-04T08:24:03.850Z,968.03
2022-11-04T08:25:03.860Z,967.77
2022-11-04T08:26:03.819Z,967.89
2022-11-04T08:27:02.961Z,967.83
2022-11-04T08:28:02.984Z,967.69
2022-11-04T08:29:03.149Z,967.83
2022-11-04T08:30:03.080Z,967.77
2022-11-04T08:31:03.151Z,967.74
2022-11-04T08:32:03.134Z,967.71
2022-11-04T08:33:03.130Z,967.74
2022-11-04T08:34:03.058Z,967.65
2022-11-04T08:35:03.143Z,967.77
2022-11-04T08:36:03.150Z,967.62
2022-11-04T08:37:03.199Z,967.74
2022-11-04T08:38:03.218Z,967.42
2022-11-04T08:39:11.082Z,967.56
2022-11-04T08:40:03.314Z,967.53
2022-11-04T08:41:03.418Z,967.53
2022-11-04T08:42:03.408Z,967.39
2022-11-04T08:43:03.360Z,967.42
2022-11-04T08:44:03.406Z,967.42
2022-11-04T08:45:03.489Z,967.59
2022-11-04T08:46:03.557Z,967.48
2022-11-04T08:47:03.518Z,967.62
2022-11-04T08:48:06.178Z,967.65
2022-11-04T08:49:10.727Z,967.48
2022-11-04T08:50:03.602Z,967.50
2022-11-04T08:51:03.586Z,967.45
2022-11-04T08:52:03.634Z,967.45
2022-11-04T08:53:03.731Z,967.48
2022-11-04T08:54:03.757Z,967.68
2022-11-04T08:55:03.723Z,967.68
2022-11-04T08:56:03.728Z,967.79
2022-11-04T08:57:03.937Z,968.02
2022-11-04T08:58:03.864Z,968.17
2022-11-04T08:59:02.913Z,968.14
2022-11-04T09:00:03.015Z,968.11
2022-11-04T09:01:03.014Z,968.22
2022-11-04T09:02:03.238Z,968.19
2022-11-04T09:03:02.935Z,968.17
2022-11-04T09:04:03.289Z,968.14
2022-11-04T09:05:03.089Z,968.14
2022-11-04T09:06:03.199Z,968.28
2022-11-04T09:07:08.505Z,968.19
2022-11-04T09:08:03.284Z,968.28
2022-11-04T09:09:03.275Z,968.25
2022-11-04T09:10:03.251Z,968.25
2022-11-04T09:11:03.215Z,968.31
2022-11-04T09:12:03.214Z,968.39
2022-11-04T09:13:03.321Z,968.39
2022-11-04T09:14:03.231Z,968.45
2022-11-04T09:15:03.414Z,968.48
2022-11-04T09:16:03.300Z,968.54
2022-11-04T09:17:03.264Z,968.42
2022-11-04T09:18:03.311Z,968.51
2022-11-04T09:19:03.298Z,968.57
2022-11-04T09:20:03.327Z,968.57
2022-11-04T09:21:03.314Z,968.42
2022-11-04T09:22:03.368Z,968.40
2022-11-04T09:23:03.316Z,968.48
2022-11-04T09:24:03.385Z,968.57
2022-11-04T09:25:03.409Z,968.46
2022-11-04T09:26:03.412Z,968.51
2022-11-04T09:27:03.333Z,968.68
2022-11-04T09:28:03.433Z,968.63
2022-11-04T09:29:03.385Z,968.73
2022-11-04T09:30:03.402Z,968.71
2022-11-04T09:31:03.416Z,968.85
2022-11-04T09:32:03.445Z,968.79
2022-11-04T09:33:03.378Z,968.79
2022-11-04T09:34:03.392Z,968.82
2022-11-04T09:35:03.600Z,968.76
2022-11-04T09:36:03.620Z,968.71
2022-11-04T09:37:03.749Z,968.74
2022-11-04T09:38:03.848Z,968.77
2022-11-04T09:39:03.868Z,968.80
2022-11-04T09:40:03.879Z,968.85
2022-11-04T09:41:02.901Z,968.88
2022-11-04T09:42:03.920Z,968.94
2022-11-04T09:43:02.970Z,968.91
2022-11-04T09:44:03.933Z,968.94
2022-11-04T09:45:23.419Z,968.91
2022-11-04T09:46:02.991Z,969.08
2022-11-04T09:47:03.076Z,968.94
2022-11-04T09:48:03.010Z,969.03
2022-11-04T09:49:02.991Z,969.03
2022-11-04T09:50:03.086Z,968.86
2022-11-04T09:51:03.112Z,969.02
2022-11-04T09:52:02.980Z,968.97
2022-11-04T09:53:02.969Z,969.11
2022-11-04T09:54:02.998Z,969.03
2022-11-04T09:55:03.085Z,969.00
2022-11-04T09:56:03.082Z,969.08
2022-11-04T09:57:03.113Z,969.02
2022-11-04T09:58:03.128Z,969.02
2022-11-04T09:59:03.096Z,969.08
2022-11-04T10:00:02.993Z,969.00
2022-11-04T10:01:03.292Z,969.02
2022-11-04T10:02:03.265Z,969.00
2022-11-04T10:03:03.048Z,968.97
2022-11-04T10:04:03.063Z,968.88
2022-11-04T10:05:03.130Z,968.94
2022-11-04T10:06:03.283Z,968.88
2022-11-04T10:07:03.334Z,968.99
2022-11-04T10:08:03.168Z,968.94
2022-11-04T10:09:03.275Z,968.94
2022-11-04T10:10:03.263Z,968.88
2022-11-04T10:11:03.209Z,968.91
2022-11-04T10:12:03.134Z,968.91
2022-11-04T10:13:03.189Z,968.85
2022-11-04T10:14:03.371Z,968.91
2022-11-04T10:15:03.248Z,968.91
2022-11-04T10:16:03.354Z,968.77
2022-11-04T10:17:03.540Z,968.99
2022-11-04T10:18:03.508Z,968.91
2022-11-04T10:19:03.453Z,968.85
2022-11-04T10:20:03.461Z,968.91
2022-11-04T10:21:03.534Z,968.88
2022-11-04T10:22:03.424Z,968.76
2022-11-04T10:23:03.508Z,968.85
2022-11-04T10:24:03.466Z,968.77
2022-11-04T10:25:03.493Z,968.91
2022-11-04T10:26:03.470Z,968.94
2022-11-04T10:27:03.444Z,968.91
2022-11-04T10:28:03.513Z,968.96
2022-11-04T10:29:03.458Z,968.91
2022-11-04T10:30:03.438Z,968.85
2022-11-04T10:31:03.528Z,968.82
2022-11-04T10:32:03.559Z,968.82
2022-11-04T10:33:03.667Z,968.88
2022-11-04T10:34:03.730Z,968.82
2022-11-04T10:35:03.641Z,968.91
2022-11-04T10:36:03.655Z,968.79
2022-11-04T10:37:03.706Z,968.82
2022-11-04T10:38:03.814Z,968.77
2022-11-04T10:39:03.857Z,968.79
2022-11-04T10:40:03.054Z,968.82
2022-11-04T10:41:07.635Z,968.77
2022-11-04T10:42:02.923Z,968.88
2022-11-04T10:43:03.024Z,968.85
2022-11-04T10:44:02.969Z,968.85
2022-11-04T10:45:03.009Z,968.88
2022-11-04T10:46:03.889Z,968.85
2022-11-04T10:47:02.939Z,968.91
2022-11-04T10:48:03.014Z,968.77
2022-11-04T10:49:03.085Z,968.94
2022-11-04T10:50:30.696Z,968.88
2022-11-04T10:51:03.137Z,968.97
2022-11-04T10:52:03.099Z,968.94
2022-11-04T10:53:03.175Z,969.02
2022-11-04T10:54:03.064Z,968.96
2022-11-04T10:55:03.160Z,968.96
2022-11-04T10:56:03.185Z,968.99
2022-11-04T10:57:03.387Z,968.94
2022-11-04T10:58:03.466Z,969.11
2022-11-04T10:59:03.474Z,968.94
2022-11-04T11:00:03.613Z,968.96
2022-11-04T11:01:03.784Z,968.94
2022-11-04T11:02:03.815Z,969.11
2022-11-04T11:03:03.949Z,969.02
2022-11-04T11:04:02.970Z,969.08
2022-11-04T11:05:02.979Z,969.11
2022-11-04T11:06:03.036Z,968.96
2022-11-04T11:07:03.195Z,969.08
2022-11-04T11:08:03.136Z,969.05
2022-11-04T11:09:03.107Z,968.99
2022-11-04T11:10:03.276Z,969.05
2022-11-04T11:11:03.215Z,969.02
2022-11-04T11:12:36.569Z,969.14
2022-11-04T11:13:03.028Z,969.05
2022-11-04T11:14:03.114Z,969.08
2022-11-04T11:15:03.227Z,969.08
2022-11-04T11:16:03.173Z,969.10
2022-11-04T11:17:03.228Z,969.05
2022-11-04T11:18:03.316Z,969.02
2022-11-04T11:19:03.347Z,969.22
2022-11-04T11:20:03.381Z,969.08
2022-11-04T11:21:03.255Z,969.08
2022-11-04T11:22:03.290Z,969.02
2022-11-04T11:23:05.461Z,969.05
2022-11-04T11:24:03.340Z,968.96
2022-11-04T11:25:03.389Z,968.85
2022-11-04T11:26:03.420Z,968.96
2022-11-04T11:27:03.449Z,968.90
2022-11-04T11:28:03.431Z,968.96
2022-11-04T11:29:03.372Z,968.96
2022-11-04T11:30:03.243Z,968.93
2022-11-04T11:31:03.354Z,968.93
2022-11-04T11:32:03.487Z,968.96
2022-11-04T11:33:03.694Z,968.93
2022-11-04T11:34:03.554Z,968.73
2022-11-04T11:35:11.646Z,968.93
2022-11-04T11:36:03.591Z,968.93
2022-11-04T11:37:03.734Z,968.82
2022-11-04T11:38:03.761Z,968.87
2022-11-04T11:39:03.824Z,968.81
2022-11-04T11:40:03.750Z,968.93
2022-11-04T11:41:25.712Z,968.90
2022-11-04T11:42:03.510Z,968.90
2022-11-04T11:43:03.555Z,968.90
2022-11-04T11:44:03.665Z,968.98
2022-11-04T11:45:03.629Z,968.93
2022-11-04T11:46:03.558Z,968.90
2022-11-04T11:47:03.663Z,968.81
2022-11-04T11:48:03.609Z,968.84
2022-11-04T11:49:03.523Z,968.87
2022-11-04T11:50:03.602Z,968.95
2022-11-04T11:51:03.596Z,968.92
2022-11-04T11:52:03.585Z,968.78
2022-11-04T11:53:03.581Z,968.87
2022-11-04T11:54:03.642Z,968.92
2022-11-04T11:55:03.704Z,968.84
2022-11-04T11:56:03.662Z,968.81
2022-11-04T11:57:16.673Z,968.92
2022-11-04T12:00:36.931Z,968.92
2022-11-04T12:01:19.558Z,968.72
2022-11-04T12:02:04.204Z,968.91
2022-11-04T12:03:04.301Z,968.86
2022-11-04T12:06:19.467Z,968.94
2022-11-04T12:09:23.264Z,968.85
2022-11-04T12:10:04.717Z,968.91
2022-11-04T12:11:03.251Z,968.90
2022-11-04T12:12:03.197Z,968.96
2022-11-04T12:13:03.368Z,968.96
2022-11-04T12:14:03.255Z,969.02
2022-11-04T12:15:03.355Z,969.01
2022-11-04T12:16:03.258Z,969.01
2022-11-04T12:17:03.283Z,969.15
2022-11-04T12:18:03.439Z,968.95
2022-11-04T12:19:03.415Z,968.95
2022-11-04T12:20:03.458Z,969.06
2022-11-04T12:21:03.632Z,969.15
2022-11-04T12:22:03.684Z,969.01
2022-11-04T12:23:03.901Z,969.12
2022-11-04T12:24:03.813Z,969.18
2022-11-04T12:25:03.833Z,969.00
2022-11-04T12:26:03.968Z,969.09
2022-11-04T12:27:03.852Z,969.09
2022-11-04T12:28:03.886Z,968.95
2022-11-04T12:29:03.835Z,969.00
2022-11-04T12:30:03.838Z,969.09
2022-11-04T12:31:02.906Z,969.06
2022-11-04T12:32:02.967Z,969.03
2022-11-04T12:33:03.213Z,968.91
2022-11-04T12:34:03.248Z,968.97
2022-11-04T12:35:03.163Z,969.14
2022-11-04T12:36:03.224Z,968.94